Time;durP1;ratioP1;P1;durP2;ratioP2;P2;SDS_P1;SDS_P2;PMS_P1;PMS_P2;Temp;Humidity;BMP_temperature;BMP_pressure;BME280_temperature;BME280_humidity;BME280_pressure;Samples;Min_cycle;Max_cycle;Signal;HPM_P1;HPM_P2
2023/07/27 00:01:49;;;;;;;0.70;0.68;;;;;;;16.81;100.00;99132.94;4990824;28;20093;-46
2023/07/27 00:04:16;;;;;;;0.43;0.40;;;;;;;16.81;100.00;99134.97;4991910;28;20034;-44
2023/07/27 00:06:43;;;;;;;1.23;0.40;;;;;;;16.79;100.00;99126.19;4992170;28;20570;-46
2023/07/27 00:09:10;;;;;;;4.38;0.50;;;;;;;16.77;100.00;99131.41;4992380;28;20073;-45
2023/07/27 00:11:36;;;;;;;0.85;0.60;;;;;;;16.76;100.00;99129.88;4990970;28;20053;-45
2023/07/27 00:14:03;;;;;;;0.75;0.68;;;;;;;16.77;100.00;99126.63;4992213;28;20090;-46
2023/07/27 00:16:30;;;;;;;0.50;0.47;;;;;;;16.75;100.00;99126.28;4985264;28;20046;-46
2023/07/27 00:18:58;;;;;;;1.40;0.40;;;;;;;16.75;100.00;99128.28;4985580;28;20054;-44
2023/07/27 00:21:25;;;;;;;1.33;0.25;;;;;;;16.73;100.00;99131.47;4992226;28;20041;-46
2023/07/27 00:23:51;;;;;;;0.30;0.30;;;;;;;16.71;100.00;99128.31;4992173;28;20050;-45
2023/07/27 00:26:18;;;;;;;1.20;0.47;;;;;;;16.72;100.00;99126.31;4992254;28;20046;-44
2023/07/27 00:28:45;;;;;;;0.85;0.28;;;;;;;16.71;100.00;99122.72;4990965;28;20052;-47
2023/07/27 00:31:12;;;;;;;2.45;0.47;;;;;;;16.70;100.00;99123.97;4991629;28;20046;-45
2023/07/27 00:33:39;;;;;;;0.90;0.20;;;;;;;16.70;100.00;99121.16;4984108;28;20050;-44
2023/07/27 00:36:06;;;;;;;1.30;0.30;;;;;;;16.72;100.00;99123.53;4990086;28;20054;-52
2023/07/27 00:38:32;;;;;;;2.80;0.30;;;;;;;16.72;100.00;99134.72;4983600;28;20100;-44
2023/07/27 00:40:59;;;;;;;1.45;0.30;;;;;;;16.73;100.00;99125.88;4991773;28;20042;-44
2023/07/27 00:43:26;;;;;;;1.52;0.30;;;;;;;16.73;100.00;99125.88;4991634;28;20054;-45
2023/07/27 00:45:55;;;;;;;0.77;0.32;;;;;;;16.72;100.00;99123.53;4988338;28;20046;-44
2023/07/27 00:48:22;;;;;;;0.55;0.20;;;;;;;16.69;100.00;99124.38;4986916;28;20539;-46
2023/07/27 00:50:50;;;;;;;0.10;0.10;;;;;;;16.67;100.00;99129.59;4983684;28;20046;-44
2023/07/27 00:53:18;;;;;;;2.25;0.20;;;;;;;16.66;100.00;99125.22;4989663;28;20054;-46
2023/07/27 00:55:46;;;;;;;0.10;0.10;;;;;;;16.66;100.00;99126.00;4990787;28;20042;-44
2023/07/27 00:58:13;;;;;;;0.17;0.17;;;;;;;16.66;100.00;99122.44;4991388;28;20553;-45
2023/07/27 01:00:42;;;;;;;0.93;0.20;;;;;;;16.66;100.00;99136.41;4990651;28;20050;-44
2023/07/27 01:03:09;;;;;;;1.85;0.10;;;;;;;16.66;100.00;99126.00;4991832;28;20061;-44
2023/07/27 01:05:37;;;;;;;0.45;0.20;;;;;;;16.66;100.00;99128.00;5000251;28;20129;-46
2023/07/27 01:08:04;;;;;;;0.77;0.40;;;;;;;16.66;100.00;99131.59;4984460;28;20030;-46
2023/07/27 01:10:55;;;;;;;0.30;0.20;;;;;;;16.66;100.00;99130.81;4991638;28;20038;-44
2023/07/27 01:13:51;;;;;;;1.17;0.10;;;;;;;16.66;100.00;99125.22;4982386;28;20572;-44
2023/07/27 01:16:30;;;;;;;0.30;0.28;;;;;;;16.65;100.00;99123.66;4991854;28;20046;-45
2023/07/27 01:19:09;;;;;;;0.52;0.30;;;;;;;16.64;100.00;99116.47;4991461;28;20058;-44
2023/07/27 01:21:42;;;;;;;2.33;0.20;;;;;;;16.61;100.00;99117.31;4991551;28;20065;-45
2023/07/27 01:24:31;;;;;;;1.75;0.25;;;;;;;16.60;100.00;99116.53;4987934;28;20459;-45
2023/07/27 01:27:18;;;;;;;0.82;0.15;;;;;;;16.61;100.00;99125.72;4983774;28;20038;-43
2023/07/27 01:30:11;;;;;;;2.30;0.20;;;;;;;16.59;100.00;99125.34;4980124;28;20066;-45
2023/07/27 01:32:41;;;;;;;5.28;0.32;;;;;;;16.57;100.00;99122.19;4969274;28;20065;-44
2023/07/27 01:35:11;;;;;;;1.80;0.17;;;;;;;16.57;100.00;99125.00;4990040;28;20053;-45
2023/07/27 01:37:41;;;;;;;0.52;0.30;;;;;;;16.55;100.00;99117.03;4992188;28;20088;-43
2023/07/27 01:40:11;;;;;;;2.25;0.13;;;;;;;16.55;100.00;99127.44;4993209;28;20101;-43
2023/07/27 01:42:39;;;;;;;2.53;0.20;;;;;;;16.55;100.00;99119.81;4990133;28;20116;-44
2023/07/27 01:45:06;;;;;;;0.98;0.20;;;;;;;16.56;100.00;99123.41;4994892;28;20046;-44
2023/07/27 01:47:33;;;;;;;1.60;0.10;;;;;;;16.57;100.00;99117.41;4994886;28;20046;-43
2023/07/27 01:50:01;;;;;;;1.60;0.20;;;;;;;16.58;100.00;99118.16;4994681;28;20138;-44
2023/07/27 01:52:28;;;;;;;0.75;0.17;;;;;;;16.57;100.00;99123.00;4994839;28;20038;-43
2023/07/27 01:54:56;;;;;;;4.38;0.30;;;;;;;16.57;100.00;99120.19;4994802;28;20133;-44
2023/07/27 01:57:24;;;;;;;2.28;0.28;;;;;;;16.58;100.00;99123.75;4994023;28;20484;-45
2023/07/27 01:59:52;;;;;;;2.30;0.38;;;;;;;16.58;100.00;99113.38;4992847;28;20042;-43
2023/07/27 02:02:20;;;;;;;0.47;0.10;;;;;;;16.56;100.00;99115.81;4993102;28;20046;-44
2023/07/27 02:04:48;;;;;;;2.60;0.20;;;;;;;16.55;100.00;99119.81;4994315;28;20038;-43
2023/07/27 02:07:17;;;;;;;1.38;0.20;;;;;;;16.54;100.00;99128.63;4994903;28;20039;-43
2023/07/27 02:09:44;;;;;;;0.40;0.10;;;;;;;16.54;100.00;99123.03;4993800;28;20046;-43
2023/07/27 02:12:18;;;;;;;0.47;0.10;;;;;;;16.52;100.00;99115.03;4994510;28;20042;-43
2023/07/27 02:14:54;;;;;;;0.10;0.10;;;;;;;16.52;100.00;99119.84;4992816;28;20416;-43
2023/07/27 02:17:27;;;;;;;0.32;0.13;;;;;;;16.53;100.00;99124.25;4994415;28;20054;-45
2023/07/27 02:19:57;;;;;;;0.10;0.03;;;;;;;16.52;100.00;99114.28;4994376;28;20408;-46
2023/07/27 02:22:26;;;;;;;0.80;0.05;;;;;;;16.50;100.00;99133.44;4994310;28;20054;-46
2023/07/27 02:24:53;;;;;;;0.15;0.10;;;;;;;16.45;100.00;99138.31;4977142;28;20042;-44
2023/07/27 02:27:20;;;;;;;1.52;0.10;;;;;;;16.41;100.00;99147.97;4994710;28;20089;-44
2023/07/27 02:29:47;;;;;;;0.22;0.10;;;;;;;16.37;100.00;99138.84;4993153;28;20050;-44
2023/07/27 02:32:14;;;;;;;0.17;0.13;;;;;;;16.34;100.00;99136.88;4990202;28;20078;-44
2023/07/27 02:34:40;;;;;;;0.00;0.00;;;;;;;16.30;100.00;99136.97;4984119;28;20050;-45
2023/07/27 02:37:07;;;;;;;1.65;0.20;;;;;;;16.27;100.00;99148.97;4987965;28;20465;-43
2023/07/27 02:39:34;;;;;;;17.70;1.33;;;;;;;16.25;100.00;99148.59;4983001;28;20042;-44
2023/07/27 02:42:01;;;;;;;2.20;0.00;;;;;;;16.24;100.00;99144.22;4982554;28;20047;-51
2023/07/27 02:44:27;;;;;;;0.10;0.10;;;;;;;16.22;100.00;99140.28;4992295;28;20042;-43
2023/07/27 02:46:54;;;;;;;0.45;0.10;;;;;;;16.19;100.00;99141.13;4987009;28;20046;-47
2023/07/27 02:49:21;;;;;;;3.75;0.15;;;;;;;16.15;100.00;99143.94;4980678;28;20038;-45
2023/07/27 02:51:48;;;;;;;1.38;0.10;;;;;;;16.13;100.00;99140.78;4979696;28;20054;-45
2023/07/27 02:54:15;;;;;;;1.75;0.30;;;;;;;16.11;100.00;99154.41;4991848;28;20531;-44
2023/07/27 02:56:42;;;;;;;1.83;0.20;;;;;;;16.11;100.00;99148.81;4986588;28;20057;-44
2023/07/27 02:59:09;;;;;;;0.20;0.10;;;;;;;16.09;100.00;99147.66;4962655;28;20046;-51
2023/07/27 03:01:36;;;;;;;0.13;0.10;;;;;;;16.08;100.00;99152.44;5008971;23;20086;-44
2023/07/27 03:04:03;;;;;;;0.10;0.08;;;;;;;16.05;100.00;99144.91;4953621;28;20144;-46
2023/07/27 03:06:30;;;;;;;1.55;0.00;;;;;;;16.03;100.00;99147.34;4953265;29;20378;-45
2023/07/27 03:08:58;;;;;;;3.00;0.10;;;;;;;16.03;100.00;99147.34;4953514;29;20057;-45
2023/07/27 03:11:24;;;;;;;0.70;0.10;;;;;;;16.03;100.00;99150.13;4954657;28;20039;-44
2023/07/27 03:13:53;;;;;;;5.32;0.50;;;;;;;16.00;100.00;99148.16;4968764;28;20051;-45
2023/07/27 03:16:21;;;;;;;0.10;0.10;;;;;;;15.99;100.00;99154.94;4973728;28;20046;-45
2023/07/27 03:18:48;;;;;;;3.30;0.52;;;;;;;15.97;100.00;99154.59;4972864;28;20066;-44
2023/07/27 03:21:15;;;;;;;1.88;0.10;;;;;;;15.96;100.00;99158.59;4973605;28;20046;-44
2023/07/27 03:23:47;;;;;;;0.20;0.10;;;;;;;15.96;100.00;99161.41;4972779;28;20488;-44
2023/07/27 03:26:15;;;;;;;0.20;0.10;;;;;;;15.94;100.00;99163.78;4973723;28;20043;-46
2023/07/27 03:28:42;;;;;;;0.30;0.10;;;;;;;15.94;100.00;99158.22;4955280;28;20043;-44
2023/07/27 03:31:26;;;;;;;5.22;1.75;;;;;;;15.92;100.00;99160.63;4960849;28;20042;-44
2023/07/27 03:33:53;;;;;;;1.67;0.22;;;;;;;15.92;100.00;99154.25;4973382;28;20050;-44
2023/07/27 03:36:20;;;;;;;1.35;0.00;;;;;;;15.92;100.00;99162.63;4973504;28;20054;-44
2023/07/27 03:38:47;;;;;;;0.43;0.20;;;;;;;15.88;100.00;99165.50;4972720;28;20054;-44
2023/07/27 03:41:14;;;;;;;0.30;0.20;;;;;;;15.89;100.00;99167.06;4964970;28;20043;-45
2023/07/27 03:43:41;;;;;;;0.43;0.28;;;;;;;15.89;100.00;99167.06;4969289;28;20101;-44
2023/07/27 03:46:08;;;;;;;1.30;0.10;;;;;;;15.90;100.00;99167.84;4973328;28;20046;-46
2023/07/27 03:48:36;;;;;;;2.15;0.50;;;;;;;15.91;100.00;99184.19;4972429;28;20484;-44
2023/07/27 03:51:03;;;;;;;0.85;0.10;;;;;;;15.91;100.00;99164.66;4973460;28;20097;-45
2023/07/27 03:53:30;;;;;;;0.28;0.10;;;;;;;15.92;100.00;99174.59;4956199;28;20065;-44
2023/07/27 03:56:01;;;;;;;0.08;0.03;;;;;;;15.92;100.00;99176.59;4955990;28;20512;-44
2023/07/27 03:58:28;;;;;;;1.50;1.15;;;;;;;15.91;100.00;99181.41;4969778;28;20563;-44
2023/07/27 04:00:56;;;;;;;0.10;0.00;;;;;;;15.89;100.00;99181.00;4964133;28;20063;-44
2023/07/27 04:03:23;;;;;;;2.90;0.20;;;;;;;15.87;100.00;99180.66;4972919;28;20066;-45
2023/07/27 04:05:51;;;;;;;1.55;0.10;;;;;;;15.88;100.00;99181.44;4972817;28;20053;-44
2023/07/27 04:08:18;;;;;;;0.28;0.10;;;;;;;15.86;100.00;99179.06;4972733;28;20034;-45
2023/07/27 04:10:45;;;;;;;1.60;0.10;;;;;;;15.87;100.00;99189.03;4971987;28;20050;-45
2023/07/27 04:13:12;;;;;;;1.75;0.10;;;;;;;15.86;100.00;99181.84;4971773;28;20058;-44
2023/07/27 04:15:39;;;;;;;0.43;0.00;;;;;;;15.84;100.00;99190.66;4972730;28;20057;-44
2023/07/27 04:18:06;;;;;;;1.20;0.10;;;;;;;15.85;100.00;99194.22;4972489;28;20039;-45
2023/07/27 04:20:33;;;;;;;0.20;0.10;;;;;;;15.83;100.00;99193.88;4971841;28;20055;-46
2023/07/27 04:23:00;;;;;;;0.08;0.00;;;;;;;15.82;100.00;99186.69;4972858;28;20046;-44
2023/07/27 04:25:26;;;;;;;0.52;0.03;;;;;;;15.83;100.00;99196.66;4972850;28;20484;-44
2023/07/27 04:27:53;;;;;;;0.38;0.10;;;;;;;15.84;100.00;99195.44;4972399;28;20057;-45
2023/07/27 04:30:20;;;;;;;0.65;0.10;;;;;;;15.82;100.00;99189.47;4970820;28;20138;-45
2023/07/27 04:32:47;;;;;;;0.10;0.00;;;;;;;15.82;100.00;99189.47;4972353;28;20559;-45
2023/07/27 04:35:14;;;;;;;0.43;0.43;;;;;;;15.78;100.00;99189.53;4972621;28;20062;-45
2023/07/27 04:37:41;;;;;;;1.85;0.20;;;;;;;15.80;100.00;99191.91;4972589;28;20100;-44
2023/07/27 04:40:08;;;;;;;0.25;0.10;;;;;;;15.80;100.00;99191.91;4971673;28;20054;-44
2023/07/27 04:42:38;;;;;;;0.20;0.10;;;;;;;15.78;100.00;99199.88;4960201;28;20071;-46
2023/07/27 04:45:05;;;;;;;0.90;0.25;;;;;;;15.80;100.00;99194.69;4972136;28;20043;-47
2023/07/27 04:47:32;;;;;;;0.57;0.32;;;;;;;15.80;100.00;99203.06;4971424;28;20055;-45
2023/07/27 04:49:59;;;;;;;0.17;0.17;;;;;;;15.80;100.00;99205.88;4954518;28;20054;-44
2023/07/27 04:52:27;;;;;;;1.33;0.20;;;;;;;15.80;100.00;99206.66;4972368;28;20630;-45
2023/07/27 04:54:54;;;;;;;0.68;0.30;;;;;;;15.80;100.00;99214.22;4972202;28;20054;-44
2023/07/27 04:57:21;;;;;;;1.13;0.50;;;;;;;15.80;100.00;99214.22;4972417;28;20042;-45
2023/07/27 04:59:48;;;;;;;1.15;0.40;;;;;;;15.81;100.00;99221.38;4954091;28;20043;-44
2023/07/27 05:02:15;;;;;;;1.85;0.40;;;;;;;15.82;100.00;99222.97;4972362;28;20479;-44
2023/07/27 05:04:42;;;;;;;0.60;0.47;;;;;;;15.82;100.00;99212.59;4971249;28;20374;-44
2023/07/27 05:07:08;;;;;;;0.60;0.60;;;;;;;15.84;100.00;99228.91;4971983;28;20078;-45
2023/07/27 05:09:35;;;;;;;1.80;0.65;;;;;;;15.86;100.00;99220.16;4971144;28;20053;-44
2023/07/27 05:12:02;;;;;;;2.35;0.40;;;;;;;15.85;100.00;99213.78;4972489;28;20077;-44
2023/07/27 05:14:29;;;;;;;1.77;0.50;;;;;;;15.89;100.00;99219.28;4975794;28;20050;-44
2023/07/27 05:16:56;;;;;;;1.85;0.68;;;;;;;15.90;100.00;99216.09;4975943;28;20102;-44
2023/07/27 05:19:22;;;;;;;2.13;0.50;;;;;;;15.94;100.00;99230.00;4973680;28;20559;-45
2023/07/27 05:21:49;;;;;;;2.70;0.43;;;;;;;15.97;100.00;99235.53;4964962;28;20047;-44
2023/07/27 05:24:16;;;;;;;0.30;0.30;;;;;;;15.98;100.00;99228.75;4972230;28;20035;-44
2023/07/27 05:26:43;;;;;;;2.85;0.70;;;;;;;15.99;100.00;99233.09;4975571;28;20500;-46
2023/07/27 05:29:15;;;;;;;0.57;0.57;;;;;;;15.99;100.00;99233.09;4974816;28;20039;-45
2023/07/27 05:32:29;;;;;;;0.60;0.60;;;;;;;16.02;100.00;99237.84;4967750;28;20050;-45
